sensor_id;sensor_type;location;lat;lon;timestamp;pressure;altitude;pressure_sealevel;temperature;humidity
6425;BME280;12193;42.642;23.384;2023-06-14T00:01:11;94164.47;;;16.94;100.00
6425;BME280;12193;42.642;23.384;2023-06-14T00:03:40;94164.75;;;16.92;100.00
6425;BME280;12193;42.642;23.384;2023-06-14T00:06:09;94161.84;;;16.94;100.00
6425;BME280;12193;42.642;23.384;2023-06-14T03:08:28;94163.94;;;16.92;100.00
6425;BME280;12193;42.642;23.384;2023-06-14T03:10:57;94170.41;;;17.06;100.00
6425;BME280;12193;42.642;23.384;2023-06-14T03:13:28;94170.97;;;17.13;100.00
6425;BME280;12193;42.642;23.384;2023-06-14T03:15:58;94176.13;;;17.03;100.00
6425;BME280;12193;42.642;23.384;2023-06-14T03:18:29;94167.97;;;16.99;100.00
6425;BME280;12193;42.642;23.384;2023-06-14T03:21:01;94174.75;;;16.95;100.00
6425;BME280;12193;42.642;23.384;2023-06-14T03:23:33;94173.56;;;16.81;100.00
6425;BME280;12193;42.642;23.384;2023-06-14T03:26:02;94176.97;;;16.82;100.00
6425;BME280;12193;42.642;23.384;2023-06-14T03:28:32;94174.41;;;16.87;100.00
6425;BME280;12193;42.642;23.384;2023-06-14T03:31:01;94169.22;;;16.70;100.00
6425;BME280;12193;42.642;23.384;2023-06-14T03:33:30;94175.88;;;16.78;100.00
6425;BME280;12193;42.642;23.384;2023-06-14T03:35:59;94171.22;;;16.85;100.00
6425;BME280;12193;42.642;23.384;2023-06-14T03:38:29;94174.50;;;16.97;100.00
6425;BME280;12193;42.642;23.384;2023-06-14T03:41:00;94180.75;;;16.91;100.00
6425;BME280;12193;42.642;23.384;2023-06-14T03:43:30;94183.13;;;16.92;100.00
6425;BME280;12193;42.642;23.384;2023-06-14T03:45:59;94182.38;;;16.97;100.00
6425;BME280;12193;42.642;23.384;2023-06-14T03:48:28;94187.13;;;17.00;100.00
6425;BME280;12193;42.642;23.384;2023-06-14T03:50:57;94181.94;;;17.05;100.00
6425;BME280;12193;42.642;23.384;2023-06-14T03:53:27;94182.38;;;16.97;100.00
6425;BME280;12193;42.642;23.384;2023-06-14T03:55:56;94180.22;;;16.94;100.00
6425;BME280;12193;42.642;23.384;2023-06-14T03:58:29;94180.78;;;16.96;100.00
6425;BME280;12193;42.642;23.384;2023-06-14T04:00:58;94180.78;;;16.96;100.00
6425;BME280;12193;42.642;23.384;2023-06-14T04:03:27;94188.16;;;16.99;100.00
6425;BME280;12193;42.642;23.384;2023-06-14T04:05:56;94192.31;;;16.95;100.00
6425;BME280;12193;42.642;23.384;2023-06-14T04:08:26;94190.44;;;16.90;100.00
6425;BME280;12193;42.642;23.384;2023-06-14T04:10:55;94194.25;;;16.78;100.00
6425;BME280;12193;42.642;23.384;2023-06-14T04:13:25;94194.19;;;16.73;100.00
6425;BME280;12193;42.642;23.384;2023-06-14T04:15:57;94191.81;;;16.71;100.00
6425;BME280;12193;42.642;23.384;2023-06-14T04:18:26;94197.19;;;16.81;100.00
6425;BME280;12193;42.642;23.384;2023-06-14T04:20:55;94194.41;;;16.93;100.00
6425;BME280;12193;42.642;23.384;2023-06-14T04:23:25;94197.63;;;17.00;100.00
6425;BME280;12193;42.642;23.384;2023-06-14T04:25:54;94193.72;;;17.02;100.00
6425;BME280;12193;42.642;23.384;2023-06-14T04:28:28;94198.47;;;17.05;100.00
6425;BME280;12193;42.642;23.384;2023-06-14T04:31:00;94194.94;;;17.16;100.00
6425;BME280;12193;42.642;23.384;2023-06-14T04:33:30;94200.25;;;17.21;100.00
6425;BME280;12193;42.642;23.384;2023-06-14T04:36:09;94191.13;;;17.29;100.00
6425;BME280;12193;42.642;23.384;2023-06-14T04:38:39;94196.31;;;17.50;100.00
6425;BME280;12193;42.642;23.384;2023-06-14T04:41:08;94196.41;;;17.60;100.00
6425;BME280;12193;42.642;23.384;2023-06-14T04:43:38;94201.78;;;17.75;100.00
6425;BME280;12193;42.642;23.384;2023-06-14T04:46:11;94198.50;;;17.58;100.00
6425;BME280;12193;42.642;23.384;2023-06-14T04:48:41;94202.06;;;17.47;100.00
6425;BME280;12193;42.642;23.384;2023-06-14T04:51:12;94204.41;;;17.44;100.00
6425;BME280;12193;42.642;23.384;2023-06-14T04:53:42;94202.50;;;17.66;100.00
6425;BME280;12193;42.642;23.384;2023-06-14T04:56:11;94208.91;;;17.79;100.00
6425;BME280;12193;42.642;23.384;2023-06-14T04:58:41;94208.53;;;17.97;100.00
6425;BME280;12193;42.642;23.384;2023-06-14T05:01:13;94213.28;;;18.00;100.00
6425;BME280;12193;42.642;23.384;2023-06-14T05:03:42;94217.50;;;18.01;100.00
6425;BME280;12193;42.642;23.384;2023-06-14T05:06:15;94220.00;;;18.18;100.00
6425;BME280;12193;42.642;23.384;2023-06-14T05:08:45;94224.06;;;18.35;100.00
6425;BME280;12193;42.642;23.384;2023-06-14T05:11:14;94217.31;;;18.13;100.00
6425;BME280;12193;42.642;23.384;2023-06-14T05:13:43;94218.47;;;18.27;100.00
6425;BME280;12193;42.642;23.384;2023-06-14T05:16:16;94218.31;;;18.43;100.00
6425;BME280;12193;42.642;23.384;2023-06-14T05:18:45;94223.94;;;18.20;100.00
6425;BME280;12193;42.642;23.384;2023-06-14T05:21:15;94228.97;;;18.22;100.00
6425;BME280;12193;42.642;23.384;2023-06-14T05:23:44;94224.22;;;18.19;100.00
6425;BME280;12193;42.642;23.384;2023-06-14T05:26:14;94223.91;;;18.15;100.00
6425;BME280;12193;42.642;23.384;2023-06-14T05:28:43;94231.81;;;17.84;100.00
6425;BME280;12193;42.642;23.384;2023-06-14T05:31:15;94229.47;;;17.82;100.00
6425;BME280;12193;42.642;23.384;2023-06-14T05:33:44;94242.47;;;17.99;100.00
6425;BME280;12193;42.642;23.384;2023-06-14T05:36:14;94237.91;;;18.21;100.00
6425;BME280;12193;42.642;23.384;2023-06-14T05:38:45;94248.09;;;18.44;100.00
6425;BME280;12193;42.642;23.384;2023-06-14T05:41:14;94233.88;;;18.50;100.00
6425;BME280;12193;42.642;23.384;2023-06-14T05:43:44;94234.25;;;18.68;100.00
6425;BME280;12193;42.642;23.384;2023-06-14T05:46:16;94237.47;;;18.75;100.00
6425;BME280;12193;42.642;23.384;2023-06-14T05:48:48;94238.81;;;18.87;100.00
6425;BME280;12193;42.642;23.384;2023-06-14T05:51:17;94257.25;;;18.87;100.00
6425;BME280;12193;42.642;23.384;2023-06-14T05:53:48;94252.78;;;18.88;100.00
6425;BME280;12193;42.642;23.384;2023-06-14T05:56:17;94246.16;;;18.85;100.00
6425;BME280;12193;42.642;23.384;2023-06-14T05:58:47;94247.53;;;18.98;100.00
6425;BME280;12193;42.642;23.384;2023-06-14T06:01:19;94249.97;;;19.04;100.00
6425;BME280;12193;42.642;23.384;2023-06-14T06:03:48;94254.44;;;19.09;100.00
6425;BME280;12193;42.642;23.384;2023-06-14T06:06:17;94251.25;;;19.02;100.00
6425;BME280;12193;42.642;23.384;2023-06-14T06:08:46;94255.84;;;19.21;100.00
6425;BME280;12193;42.642;23.384;2023-06-14T06:11:16;94254.81;;;19.32;100.00
6425;BME280;12193;42.642;23.384;2023-06-14T06:13:46;94256.34;;;19.13;100.00
6425;BME280;12193;42.642;23.384;2023-06-14T06:16:15;94263.59;;;18.91;100.00
6425;BME280;12193;42.642;23.384;2023-06-14T06:18:47;94266.38;;;19.21;100.00
6425;BME280;12193;42.642;23.384;2023-06-14T06:21:16;94258.53;;;19.36;100.00
6425;BME280;12193;42.642;23.384;2023-06-14T06:23:46;94261.66;;;19.33;100.00
6425;BME280;12193;42.642;23.384;2023-06-14T06:26:15;94263.34;;;19.74;100.00
6425;BME280;12193;42.642;23.384;2023-06-14T06:28:44;94267.06;;;20.08;100.00
6425;BME280;12193;42.642;23.384;2023-06-14T06:31:13;94281.31;;;19.87;100.00
6425;BME280;12193;42.642;23.384;2023-06-14T06:33:42;94277.06;;;19.91;100.00
6425;BME280;12193;42.642;23.384;2023-06-14T06:36:14;94281.88;;;20.24;100.00
6425;BME280;12193;42.642;23.384;2023-06-14T06:38:44;94283.91;;;19.72;100.00
6425;BME280;12193;42.642;23.384;2023-06-14T06:41:13;94276.75;;;19.48;100.00
6425;BME280;12193;42.642;23.384;2023-06-14T06:43:42;94273.53;;;19.41;100.00
6425;BME280;12193;42.642;23.384;2023-06-14T06:46:12;94275.84;;;19.12;100.00
6425;BME280;12193;42.642;23.384;2023-06-14T06:48:41;94280.84;;;19.19;100.00
6425;BME280;12193;42.642;23.384;2023-06-14T06:51:10;94285.66;;;19.37;100.00
6425;BME280;12193;42.642;23.384;2023-06-14T06:53:45;94287.25;;;19.38;100.00
6425;BME280;12193;42.642;23.384;2023-06-14T06:56:20;94276.72;;;19.43;100.00
6425;BME280;12193;42.642;23.384;2023-06-14T06:58:50;94279.06;;;19.24;100.00
6425;BME280;12193;42.642;23.384;2023-06-14T07:01:19;94277.78;;;19.47;100.00
6425;BME280;12193;42.642;23.384;2023-06-14T07:03:50;94281.25;;;19.67;100.00
6425;BME280;12193;42.642;23.384;2023-06-14T07:06:19;94280.50;;;19.82;100.00
6425;BME280;12193;42.642;23.384;2023-06-14T07:08:53;94286.59;;;20.12;100.00
6425;BME280;12193;42.642;23.384;2023-06-14T07:11:27;94283.13;;;19.82;100.00
6425;BME280;12193;42.642;23.384;2023-06-14T07:13:57;94284.50;;;20.29;100.00
6425;BME280;12193;42.642;23.384;2023-06-14T07:16:26;94289.47;;;20.85;100.00
6425;BME280;12193;42.642;23.384;2023-06-14T07:18:55;94273.31;;;20.97;100.00
6425;BME280;12193;42.642;23.384;2023-06-14T07:21:24;94272.31;;;21.46;100.00
6425;BME280;12193;42.642;23.384;2023-06-14T07:23:57;94284.44;;;20.79;100.00
6425;BME280;12193;42.642;23.384;2023-06-14T07:26:26;94268.47;;;21.18;100.00
6425;BME280;12193;42.642;23.384;2023-06-14T07:28:55;94267.75;;;22.38;100.00
6425;BME280;12193;42.642;23.384;2023-06-14T07:31:25;94278.22;;;23.28;100.00
6425;BME280;12193;42.642;23.384;2023-06-14T07:33:54;94274.13;;;23.17;100.00
6425;BME280;12193;42.642;23.384;2023-06-14T07:36:23;94275.75;;;23.97;93.01
6425;BME280;12193;42.642;23.384;2023-06-14T07:38:52;94264.19;;;24.38;89.21
6425;BME280;12193;42.642;23.384;2023-06-14T07:41:24;94269.94;;;24.13;93.81
6425;BME280;12193;42.642;23.384;2023-06-14T07:43:53;94266.06;;;23.87;91.23
6425;BME280;12193;42.642;23.384;2023-06-14T07:46:23;94269.41;;;23.74;89.94
6425;BME280;12193;42.642;23.384;2023-06-14T07:48:52;94269.94;;;22.26;94.99
6425;BME280;12193;42.642;23.384;2023-06-14T07:51:22;94267.59;;;21.38;100.00
6425;BME280;12193;42.642;23.384;2023-06-14T07:53:51;94265.31;;;21.16;100.00
6425;BME280;12193;42.642;23.384;2023-06-14T07:56:20;94274.38;;;21.54;100.00
6425;BME280;12193;42.642;23.384;2023-06-14T07:58:52;94279.81;;;21.82;100.00
6425;BME280;12193;42.642;23.384;2023-06-14T08:01:21;94271.44;;;21.65;100.00
6425;BME280;12193;42.642;23.384;2023-06-14T08:03:51;94278.75;;;21.78;100.00
6425;BME280;12193;42.642;23.384;2023-06-14T08:06:20;94282.28;;;21.64;100.00
6425;BME280;12193;42.642;23.384;2023-06-14T08:08:50;94282.75;;;21.17;100.00
6425;BME280;12193;42.642;23.384;2023-06-14T08:11:19;94293.56;;;21.84;100.00
6425;BME280;12193;42.642;23.384;2023-06-14T08:13:52;94291.50;;;22.14;100.00
6425;BME280;12193;42.642;23.384;2023-06-14T08:16:22;94299.22;;;23.48;97.17
6425;BME280;12193;42.642;23.384;2023-06-14T08:18:51;94304.22;;;24.28;87.34
6425;BME280;12193;42.642;23.384;2023-06-14T08:21:20;94304.31;;;25.45;80.30
6425;BME280;12193;42.642;23.384;2023-06-14T08:23:49;94308.25;;;25.34;82.29
6425;BME280;12193;42.642;23.384;2023-06-14T08:26:19;94306.25;;;23.99;87.59
6425;BME280;12193;42.642;23.384;2023-06-14T08:28:48;94305.25;;;24.14;87.55
6425;BME280;12193;42.642;23.384;2023-06-14T08:31:20;94307.41;;;23.51;88.52
6425;BME280;12193;42.642;23.384;2023-06-14T08:33:50;94297.38;;;23.90;86.73
6425;BME280;12193;42.642;23.384;2023-06-14T08:36:19;94305.34;;;23.67;88.83
6425;BME280;12193;42.642;23.384;2023-06-14T08:38:48;94307.91;;;24.96;86.61
6425;BME280;12193;42.642;23.384;2023-06-14T08:41:21;94301.13;;;25.57;82.36
6425;BME280;12193;42.642;23.384;2023-06-14T08:43:51;94299.97;;;25.63;80.98
6425;BME280;12193;42.642;23.384;2023-06-14T08:46:25;94300.81;;;24.41;83.04
6425;BME280;12193;42.642;23.384;2023-06-14T08:48:55;94296.00;;;24.61;86.38
6425;BME280;12193;42.642;23.384;2023-06-14T08:51:27;94294.03;;;26.15;78.84
6425;BME280;12193;42.642;23.384;2023-06-14T08:54:00;94290.31;;;25.13;79.10
6425;BME280;12193;42.642;23.384;2023-06-14T08:56:30;94287.22;;;25.60;78.78
6425;BME280;12193;42.642;23.384;2023-06-14T08:59:00;94279.53;;;23.91;84.61
6425;BME280;12193;42.642;23.384;2023-06-14T09:01:34;94294.22;;;25.02;80.93
6425;BME280;12193;42.642;23.384;2023-06-14T09:04:04;94287.06;;;25.56;73.47
6425;BME280;12193;42.642;23.384;2023-06-14T09:06:34;94281.69;;;26.40;70.14
6425;BME280;12193;42.642;23.384;2023-06-14T09:09:03;94277.69;;;26.08;72.41
6425;BME280;12193;42.642;23.384;2023-06-14T09:11:35;94275.53;;;24.75;76.94
6425;BME280;12193;42.642;23.384;2023-06-14T09:14:04;94275.03;;;24.73;79.11
6425;BME280;12193;42.642;23.384;2023-06-14T09:16:36;94277.63;;;26.21;72.41
6425;BME280;12193;42.642;23.384;2023-06-14T09:19:05;94283.19;;;24.50;77.29
6425;BME280;12193;42.642;23.384;2023-06-14T09:21:35;94276.91;;;24.59;79.80
6425;BME280;12193;42.642;23.384;2023-06-14T09:24:05;94273.44;;;24.09;78.72
6425;BME280;12193;42.642;23.384;2023-06-14T09:26:38;94274.75;;;23.93;78.82
6425;BME280;12193;42.642;23.384;2023-06-14T09:29:09;94272.38;;;23.91;80.22
6425;BME280;12193;42.642;23.384;2023-06-14T09:31:41;94275.94;;;24.19;78.95
6425;BME280;12193;42.642;23.384;2023-06-14T09:34:10;94274.97;;;23.36;84.24
6425;BME280;12193;42.642;23.384;2023-06-14T09:36:40;94270.78;;;24.59;78.90
6425;BME280;12193;42.642;23.384;2023-06-14T09:39:09;94263.41;;;26.26;72.89
6425;BME280;12193;42.642;23.384;2023-06-14T09:41:40;94262.66;;;27.47;65.71
6425;BME280;12193;42.642;23.384;2023-06-14T09:44:10;94256.75;;;27.19;65.81
6425;BME280;12193;42.642;23.384;2023-06-14T09:46:42;94254.59;;;27.85;59.82
6425;BME280;12193;42.642;23.384;2023-06-14T09:49:12;94251.72;;;27.65;63.16
6425;BME280;12193;42.642;23.384;2023-06-14T09:51:43;94255.31;;;26.83;63.21
6425;BME280;12193;42.642;23.384;2023-06-14T09:54:15;94248.34;;;25.86;68.28
6425;BME280;12193;42.642;23.384;2023-06-14T09:56:47;94244.97;;;25.45;68.30
6425;BME280;12193;42.642;23.384;2023-06-14T09:59:19;94251.06;;;24.46;72.14
6425;BME280;12193;42.642;23.384;2023-06-14T10:01:57;94246.19;;;23.24;81.14
6425;BME280;12193;42.642;23.384;2023-06-14T10:04:30;94241.34;;;23.68;78.11
6425;BME280;12193;42.642;23.384;2023-06-14T10:07:00;94248.25;;;24.56;75.23
6425;BME280;12193;42.642;23.384;2023-06-14T10:09:32;94238.47;;;25.24;71.69
6425;BME280;12193;42.642;23.384;2023-06-14T10:12:03;94233.81;;;25.43;72.94
6425;BME280;12193;42.642;23.384;2023-06-14T10:14:33;94227.25;;;25.14;73.93
6425;BME280;12193;42.642;23.384;2023-06-14T10:17:10;94233.41;;;25.49;72.04
6425;BME280;12193;42.642;23.384;2023-06-14T10:19:44;94237.16;;;24.81;73.49
6425;BME280;12193;42.642;23.384;2023-06-14T10:22:22;94229.44;;;24.53;73.51
6425;BME280;12193;42.642;23.384;2023-06-14T10:24:53;94222.34;;;24.62;72.30
6425;BME280;12193;42.642;23.384;2023-06-14T10:27:23;94229.09;;;23.91;74.69
6425;BME280;12193;42.642;23.384;2023-06-14T10:30:07;94225.72;;;24.04;72.70
6425;BME280;12193;42.642;23.384;2023-06-14T10:33:03;94228.16;;;24.64;70.01
6425;BME280;12193;42.642;23.384;2023-06-14T10:35:33;94225.53;;;25.04;70.64
6425;BME280;12193;42.642;23.384;2023-06-14T10:38:09;94224.44;;;25.94;65.91
6425;BME280;12193;42.642;23.384;2023-06-14T10:40:39;94222.44;;;24.25;73.87
6425;BME280;12193;42.642;23.384;2023-06-14T10:43:22;94220.91;;;24.96;70.86
6425;BME280;12193;42.642;23.384;2023-06-14T10:46:16;94217.34;;;26.34;65.30
6425;BME280;12193;42.642;23.384;2023-06-14T10:48:57;94220.28;;;26.24;64.19
6425;BME280;12193;42.642;23.384;2023-06-14T10:51:30;94215.00;;;26.84;62.16
6425;BME280;12193;42.642;23.384;2023-06-14T10:54:12;94205.75;;;26.08;63.28
6425;BME280;12193;42.642;23.384;2023-06-14T10:56:46;94203.56;;;24.72;69.13
6425;BME280;12193;42.642;23.384;2023-06-14T10:59:16;94197.06;;;24.91;68.93
6425;BME280;12193;42.642;23.384;2023-06-14T11:01:57;94193.78;;;25.48;67.15
6425;BME280;12193;42.642;23.384;2023-06-14T11:04:41;94191.53;;;27.03;61.62
6425;BME280;12193;42.642;23.384;2023-06-14T11:07:30;94186.47;;;27.41;58.39
6425;BME280;12193;42.642;23.384;2023-06-14T11:10:12;94192.81;;;26.01;64.75
6425;BME280;12193;42.642;23.384;2023-06-14T11:12:48;94188.00;;;25.19;66.43
6425;BME280;12193;42.642;23.384;2023-06-14T11:15:17;94182.34;;;25.47;65.46
6425;BME280;12193;42.642;23.384;2023-06-14T11:17:50;94188.03;;;25.90;63.25
6425;BME280;12193;42.642;23.384;2023-06-14T11:20:25;94184.63;;;26.41;60.17
6425;BME280;12193;42.642;23.384;2023-06-14T11:22:54;94185.25;;;25.24;64.48
6425;BME280;12193;42.642;23.384;2023-06-14T11:25:24;94183.25;;;25.43;64.89
6425;BME280;12193;42.642;23.384;2023-06-14T11:27:54;94177.56;;;26.37;62.80
6425;BME280;12193;42.642;23.384;2023-06-14T11:30:24;94169.84;;;26.36;64.99
6425;BME280;12193;42.642;23.384;2023-06-14T11:32:55;94173.41;;;25.65;66.24
6425;BME280;12193;42.642;23.384;2023-06-14T11:35:27;94174.72;;;25.90;64.71
6425;BME280;12193;42.642;23.384;2023-06-14T11:37:56;94173.22;;;25.62;64.39
6425;BME280;12193;42.642;23.384;2023-06-14T11:40:27;94172.63;;;24.89;67.95
6425;BME280;12193;42.642;23.384;2023-06-14T11:43:00;94174.38;;;25.21;67.83
6425;BME280;12193;42.642;23.384;2023-06-14T11:45:31;94175.28;;;24.49;70.36
6425;BME280;12193;42.642;23.384;2023-06-14T11:48:00;94169.97;;;24.49;71.75
6425;BME280;12193;42.642;23.384;2023-06-14T11:50:32;94162.03;;;24.44;71.55
6425;BME280;12193;42.642;23.384;2023-06-14T11:53:02;94157.16;;;24.19;73.03
6425;BME280;12193;42.642;23.384;2023-06-14T11:55:36;94152.84;;;24.23;72.68
6425;BME280;12193;42.642;23.384;2023-06-14T11:58:06;94151.50;;;24.39;71.49
6425;BME280;12193;42.642;23.384;2023-06-14T12:00:37;94138.25;;;25.06;72.23
6425;BME280;12193;42.642;23.384;2023-06-14T12:03:06;94133.88;;;26.46;64.29
6425;BME280;12193;42.642;23.384;2023-06-14T12:05:39;94128.78;;;26.75;62.51
6425;BME280;12193;42.642;23.384;2023-06-14T12:08:08;94134.81;;;27.79;58.34
6425;BME280;12193;42.642;23.384;2023-06-14T12:10:43;94128.50;;;26.77;59.56
6425;BME280;12193;42.642;23.384;2023-06-14T12:13:17;94122.94;;;26.35;62.37
6425;BME280;12193;42.642;23.384;2023-06-14T12:15:54;94129.16;;;26.22;61.42
6425;BME280;12193;42.642;23.384;2023-06-14T12:18:32;94118.53;;;26.30;60.43
6425;BME280;12193;42.642;23.384;2023-06-14T12:21:04;94123.94;;;25.73;62.57
6425;BME280;12193;42.642;23.384;2023-06-14T12:23:43;94117.81;;;25.29;65.48
6425;BME280;12193;42.642;23.384;2023-06-14T12:26:13;94118.66;;;24.62;68.97
6425;BME280;12193;42.642;23.384;2023-06-14T12:28:44;94126.78;;;23.80;72.00
6425;BME280;12193;42.642;23.384;2023-06-14T12:31:15;94109.31;;;24.06;71.63
6425;BME280;12193;42.642;23.384;2023-06-14T12:33:45;94112.47;;;23.94;71.32
6425;BME280;12193;42.642;23.384;2023-06-14T12:36:17;94115.94;;;24.08;70.77
6425;BME280;12193;42.642;23.384;2023-06-14T12:38:47;94112.09;;;24.01;70.80
6425;BME280;12193;42.642;23.384;2023-06-14T12:41:19;94097.56;;;24.38;67.81
6425;BME280;12193;42.642;23.384;2023-06-14T12:43:48;94103.28;;;24.45;69.33
6425;BME280;12193;42.642;23.384;2023-06-14T12:46:18;94105.28;;;24.67;70.32
6425;BME280;12193;42.642;23.384;2023-06-14T12:48:47;94104.19;;;24.81;68.39
6425;BME280;12193;42.642;23.384;2023-06-14T12:51:20;94100.16;;;24.57;68.55
6425;BME280;12193;42.642;23.384;2023-06-14T12:53:49;94093.16;;;24.74;65.75
6425;BME280;12193;42.642;23.384;2023-06-14T12:56:19;94097.78;;;24.55;67.30
6425;BME280;12193;42.642;23.384;2023-06-14T12:58:49;94103.66;;;24.12;71.47
6425;BME280;12193;42.642;23.384;2023-06-14T13:01:18;94097.41;;;23.39;80.78
6425;BME280;12193;42.642;23.384;2023-06-14T13:03:47;94108.16;;;22.51;90.81
6425;BME280;12193;42.642;23.384;2023-06-14T13:06:23;94105.22;;;22.01;98.94
6425;BME280;12193;42.642;23.384;2023-06-14T13:08:52;94117.19;;;21.65;100.00
6425;BME280;12193;42.642;23.384;2023-06-14T13:11:23;94106.63;;;21.26;100.00
6425;BME280;12193;42.642;23.384;2023-06-14T13:13:53;94109.56;;;21.20;100.00
6425;BME280;12193;42.642;23.384;2023-06-14T13:16:22;94121.91;;;20.91;100.00
6425;BME280;12193;42.642;23.384;2023-06-14T13:18:52;94122.53;;;20.63;100.00
6425;BME280;12193;42.642;23.384;2023-06-14T13:21:24;94131.13;;;20.20;100.00
6425;BME280;12193;42.642;23.384;2023-06-14T13:23:53;94136.72;;;19.99;100.00
6425;BME280;12193;42.642;23.384;2023-06-14T13:26:23;94145.69;;;19.73;100.00
6425;BME280;12193;42.642;23.384;2023-06-14T13:28:53;94147.81;;;19.66;100.00
6425;BME280;12193;42.642;23.384;2023-06-14T13:31:22;94147.00;;;19.66;100.00
6425;BME280;12193;42.642;23.384;2023-06-14T13:33:52;94148.09;;;19.75;100.00
6425;BME280;12193;42.642;23.384;2023-06-14T13:36:24;94156.78;;;19.65;100.00
6425;BME280;12193;42.642;23.384;2023-06-14T13:38:54;94148.88;;;19.55;100.00
6425;BME280;12193;42.642;23.384;2023-06-14T13:41:25;94149.41;;;19.42;100.00
6425;BME280;12193;42.642;23.384;2023-06-14T13:43:58;94150.44;;;19.36;100.00
6425;BME280;12193;42.642;23.384;2023-06-14T13:46:30;94152.00;;;19.22;100.00
6425;BME280;12193;42.642;23.384;2023-06-14T13:48:59;94139.31;;;19.04;100.00
6425;BME280;12193;42.642;23.384;2023-06-14T13:51:31;94136.66;;;18.99;100.00
6425;BME280;12193;42.642;23.384;2023-06-14T13:54:01;94137.97;;;18.92;100.00
6425;BME280;12193;42.642;23.384;2023-06-14T13:56:30;94129.50;;;18.85;100.00
6425;BME280;12193;42.642;23.384;2023-06-14T13:58:59;94142.91;;;18.79;100.00
6425;BME280;12193;42.642;23.384;2023-06-14T14:01:29;94138.44;;;18.84;100.00
6425;BME280;12193;42.642;23.384;2023-06-14T14:03:58;94141.66;;;18.91;100.00
6425;BME280;12193;42.642;23.384;2023-06-14T14:06:31;94150.63;;;18.95;100.00
6425;BME280;12193;42.642;23.384;2023-06-14T14:09:01;94162.47;;;18.97;100.00
6425;BME280;12193;42.642;23.384;2023-06-14T14:11:31;94164.59;;;19.00;100.00
6425;BME280;12193;42.642;23.384;2023-06-14T14:14:00;94168.56;;;19.08;100.00
6425;BME280;12193;42.642;23.384;2023-06-14T14:16:31;94176.00;;;19.16;100.00
6425;BME280;12193;42.642;23.384;2023-06-14T14:19:01;94174.94;;;19.37;100.00
6425;BME280;12193;42.642;23.384;2023-06-14T14:21:35;94184.19;;;19.49;100.00
6425;BME280;12193;42.642;23.384;2023-06-14T14:24:05;94182.63;;;19.63;100.00
6425;BME280;12193;42.642;23.384;2023-06-14T14:26:34;94183.69;;;19.57;100.00
6425;BME280;12193;42.642;23.384;2023-06-14T14:29:03;94183.41;;;19.64;100.00
6425;BME280;12193;42.642;23.384;2023-06-14T14:31:32;94191.06;;;19.45;100.00
6425;BME280;12193;42.642;23.384;2023-06-14T14:34:02;94181.03;;;19.42;100.00
6425;BME280;12193;42.642;23.384;2023-06-14T14:36:33;94183.28;;;18.94;100.00
6425;BME280;12193;42.642;23.384;2023-06-14T14:39:04;94188.00;;;18.92;100.00
6425;BME280;12193;42.642;23.384;2023-06-14T14:41:33;94194.50;;;18.70;100.00
6425;BME280;12193;42.642;23.384;2023-06-14T14:44:04;94191.94;;;18.28;100.00
6425;BME280;12193;42.642;23.384;2023-06-14T14:46:34;94194.09;;;18.05;100.00
6425;BME280;12193;42.642;23.384;2023-06-14T14:49:04;94191.78;;;18.08;100.00
6425;BME280;12193;42.642;23.384;2023-06-14T14:51:36;94202.00;;;18.05;100.00
6425;BME280;12193;42.642;23.384;2023-06-14T14:54:06;94198.09;;;18.07;100.00
6425;BME280;12193;42.642;23.384;2023-06-14T14:56:35;94206.75;;;18.03;100.00
6425;BME280;12193;42.642;23.384;2023-06-14T14:59:04;94203.91;;;18.14;100.00
6425;BME280;12193;42.642;23.384;2023-06-14T15:01:33;94200.34;;;18.25;100.00
6425;BME280;12193;42.642;23.384;2023-06-14T15:04:03;94198.81;;;18.39;100.00
6425;BME280;12193;42.642;23.384;2023-06-14T15:06:36;94194.44;;;18.55;100.00
6425;BME280;12193;42.642;23.384;2023-06-14T15:09:06;94182.03;;;18.55;100.00
6425;BME280;12193;42.642;23.384;2023-06-14T15:11:36;94190.84;;;18.76;100.00
6425;BME280;12193;42.642;23.384;2023-06-14T15:14:05;94185.84;;;18.79;100.00
6425;BME280;12193;42.642;23.384;2023-06-14T15:16:34;94175.56;;;18.78;100.00
6425;BME280;12193;42.642;23.384;2023-06-14T15:19:04;94176.91;;;18.85;100.00
6425;BME280;12193;42.642;23.384;2023-06-14T15:21:35;94180.88;;;18.92;100.00
6425;BME280;12193;42.642;23.384;2023-06-14T15:24:06;94185.19;;;19.13;100.00
6425;BME280;12193;42.642;23.384;2023-06-14T15:26:35;94189.34;;;19.09;100.00
6425;BME280;12193;42.642;23.384;2023-06-14T15:29:04;94181.53;;;19.19;100.00
6425;BME280;12193;42.642;23.384;2023-06-14T15:31:34;94183.41;;;19.34;100.00
6425;BME280;12193;42.642;23.384;2023-06-14T15:34:03;94181.78;;;19.23;100.00
6425;BME280;12193;42.642;23.384;2023-06-14T15:36:35;94183.38;;;19.39;100.00
6425;BME280;12193;42.642;23.384;2023-06-14T15:39:04;94189.72;;;19.33;100.00
6425;BME280;12193;42.642;23.384;2023-06-14T15:41:33;94192.34;;;19.43;100.00
6425;BME280;12193;42.642;23.384;2023-06-14T15:44:03;94203.97;;;19.47;100.00
6425;BME280;12193;42.642;23.384;2023-06-14T15:46:32;94202.13;;;19.52;100.00
6425;BME280;12193;42.642;23.384;2023-06-14T15:49:08;94197.09;;;19.41;100.00
6425;BME280;12193;42.642;23.384;2023-06-14T15:51:40;94202.94;;;19.53;100.00
6425;BME280;12193;42.642;23.384;2023-06-14T15:54:10;94215.84;;;19.44;100.00
6425;BME280;12193;42.642;23.384;2023-06-14T15:56:39;94208.34;;;19.11;100.00
6425;BME280;12193;42.642;23.384;2023-06-14T15:59:09;94212.06;;;19.15;100.00
6425;BME280;12193;42.642;23.384;2023-06-14T16:01:38;94206.56;;;19.37;100.00
6425;BME280;12193;42.642;23.384;2023-06-14T16:04:07;94202.63;;;19.24;100.00
6425;BME280;12193;42.642;23.384;2023-06-14T16:06:36;94199.66;;;19.11;100.00
6425;BME280;12193;42.642;23.384;2023-06-14T16:09:09;94203.59;;;19.08;100.00
6425;BME280;12193;42.642;23.384;2023-06-14T16:11:38;94209.72;;;19.24;100.00